createdAt,value
2018-10-07T01:29:20.921Z,0.00
2018-10-07T01:29:21.500Z,0.00
2018-10-07T01:29:22.102Z,0.00
2018-10-07T01:29:22.696Z,0.00
2018-10-07T01:29:23.296Z,0.00
2018-10-07T01:29:23.899Z,0.00
2018-10-07T01:29:24.515Z,0.00
2018-10-07T01:29:25.101Z,0.00
2018-10-07T01:30:18.573Z,0.00
2018-10-07T01:30:19.150Z,0.00
2018-10-07T01:30:19.749Z,0.00
2018-10-07T01:30:20.349Z,0.00
2018-10-07T01:30:20.950Z,0.00
2018-10-07T01:30:21.561Z,0.00
2018-10-07T01:30:22.148Z,0.00
2018-10-07T01:30:22.751Z,0.00
2018-10-07T01:31:17.250Z,0.00
2018-10-07T01:31:17.825Z,0.00
2018-10-07T01:31:18.424Z,0.00
2018-10-07T01:31:19.024Z,0.00
2018-10-07T01:31:19.624Z,0.00
2018-10-07T01:31:20.224Z,0.00
2018-10-07T01:31:20.827Z,0.00
2018-10-07T01:31:21.438Z,0.00
2018-10-07T01:32:14.903Z,0.00
2018-10-07T01:32:15.477Z,0.00
2018-10-07T01:32:16.079Z,0.00
2018-10-07T01:32:16.677Z,0.00
2018-10-07T01:32:17.277Z,0.00
2018-10-07T01:32:17.877Z,0.00
2018-10-07T01:32:18.476Z,0.00
2018-10-07T01:32:19.078Z,0.00
2018-10-07T01:33:12.556Z,0.00
2018-10-07T01:33:13.130Z,0.00
2018-10-07T01:33:13.729Z,0.00
2018-10-07T01:33:14.327Z,0.00
2018-10-07T01:33:14.927Z,0.00
2018-10-07T01:33:15.528Z,0.00
2018-10-07T01:33:16.128Z,0.00
2018-10-07T01:33:16.730Z,0.00
2018-10-07T01:34:10.206Z,0.00
2018-10-07T01:34:10.782Z,0.00
2018-10-07T01:34:11.381Z,0.00
2018-10-07T01:34:11.981Z,0.00
2018-10-07T01:34:12.581Z,0.00
2018-10-07T01:34:13.180Z,0.00
2018-10-07T01:34:13.780Z,0.00
2018-10-07T01:34:14.382Z,0.00
2018-10-07T01:35:07.859Z,0.00
2018-10-07T01:35:08.435Z,0.00
2018-10-07T01:35:09.034Z,0.00
2018-10-07T01:35:09.634Z,0.00
2018-10-07T01:35:10.234Z,0.00
2018-10-07T01:35:10.833Z,0.00
2018-10-07T01:35:11.434Z,0.00
2018-10-07T01:35:12.034Z,0.00
2018-10-07T01:36:06.536Z,0.00
2018-10-07T01:36:07.112Z,0.00
2018-10-07T01:36:07.708Z,0.00
2018-10-07T01:36:08.309Z,0.00
2018-10-07T01:36:08.909Z,0.00
2018-10-07T01:36:09.510Z,0.00
2018-10-07T01:36:10.110Z,0.00
2018-10-07T01:36:10.709Z,0.00
2018-10-07T01:37:05.210Z,0.00
2018-10-07T01:37:05.786Z,0.00
2018-10-07T01:37:06.384Z,0.00
2018-10-07T01:37:06.985Z,0.00
2018-10-07T01:37:07.587Z,0.00
2018-10-07T01:37:08.190Z,0.00
2018-10-07T01:37:08.783Z,0.00
2018-10-07T01:37:09.384Z,0.00
2018-10-07T01:38:02.862Z,0.00
2018-10-07T01:38:03.438Z,0.00
2018-10-07T01:38:04.039Z,0.00
2018-10-07T01:38:04.638Z,0.00
2018-10-07T01:38:05.238Z,0.00
2018-10-07T01:38:05.842Z,0.00
2018-10-07T01:38:06.446Z,0.00
2018-10-07T01:38:07.037Z,0.00
2018-10-07T01:39:01.545Z,0.00
2018-10-07T01:39:02.110Z,0.00
2018-10-07T01:39:02.710Z,0.00
2018-10-07T01:39:03.310Z,0.00
2018-10-07T01:39:03.911Z,0.00
2018-10-07T01:39:04.512Z,0.00
2018-10-07T01:39:05.110Z,0.00
2018-10-07T01:39:05.711Z,0.00
2018-10-07T01:40:00.219Z,0.00
2018-10-07T01:40:00.789Z,0.00
2018-10-07T01:40:01.401Z,0.00
2018-10-07T01:40:01.987Z,0.00
2018-10-07T01:40:02.588Z,0.00
2018-10-07T01:40:03.187Z,0.00
2018-10-07T01:40:03.790Z,0.00
2018-10-07T01:40:04.389Z,0.00
2018-10-07T01:40:58.893Z,0.00
2018-10-07T01:40:59.464Z,0.00
2018-10-07T01:41:00.065Z,0.00
2018-10-07T01:41:00.666Z,0.00
2018-10-07T01:41:01.265Z,0.00
2018-10-07T01:41:01.864Z,0.00
2018-10-07T01:41:02.464Z,0.00
2018-10-07T01:41:03.065Z,0.00
2018-10-07T01:41:56.546Z,0.00
2018-10-07T01:41:57.119Z,0.00
2018-10-07T01:41:57.720Z,0.00
2018-10-07T01:41:58.317Z,0.00
2018-10-07T01:41:58.918Z,0.00
2018-10-07T01:41:59.521Z,0.00
2018-10-07T01:42:00.118Z,0.00
2018-10-07T01:42:00.719Z,0.00
2018-10-07T01:42:54.194Z,0.00
2018-10-07T01:42:54.769Z,0.00
2018-10-07T01:42:55.369Z,0.00
2018-10-07T01:42:55.968Z,0.00
2018-10-07T01:42:56.569Z,0.00
2018-10-07T01:42:57.168Z,0.00
2018-10-07T01:42:57.768Z,0.00
2018-10-07T01:42:58.368Z,0.00
2018-10-07T01:44:12.428Z,0.00
2018-10-07T01:44:13.002Z,0.00
2018-10-07T01:44:13.602Z,0.00
2018-10-07T01:44:14.201Z,0.00
2018-10-07T01:44:14.802Z,0.09
2018-10-07T01:44:15.402Z,0.09
2018-10-07T01:44:16.000Z,0.00
2018-10-07T01:45:43.053Z,0.28
2018-10-07T01:45:43.627Z,0.28
2018-10-07T01:46:48.178Z,0.76
2018-10-07T01:46:48.754Z,0.85
2018-10-07T01:46:49.353Z,0.76
2018-10-07T01:46:49.953Z,0.85
2018-10-07T01:46:50.553Z,0.76
2018-10-07T01:46:51.153Z,0.76
2018-10-07T01:48:04.672Z,0.67
2018-10-07T01:48:05.249Z,0.48
2018-10-07T01:48:05.848Z,0.48
2018-10-07T01:48:06.448Z,0.57
2018-10-07T01:48:07.049Z,0.57
2018-10-07T01:48:07.650Z,0.48
2018-10-07T01:48:08.268Z,0.57
2018-10-07T01:48:08.848Z,0.48
2018-10-07T01:49:03.352Z,2.57
2018-10-07T01:49:03.923Z,2.57
2018-10-07T01:49:04.523Z,2.57
2018-10-07T01:49:05.124Z,2.38
2018-10-07T01:49:05.723Z,2.57
2018-10-07T01:49:06.326Z,2.76
2018-10-07T01:49:06.923Z,2.67
2018-10-07T01:49:07.523Z,2.67
2018-10-07T01:50:02.027Z,6.57
2018-10-07T01:50:02.599Z,6.76
2018-10-07T01:50:03.201Z,6.67
2018-10-07T01:50:03.798Z,6.57
2018-10-07T01:50:04.397Z,6.85
2018-10-07T01:50:04.999Z,6.48
2018-10-07T01:50:05.598Z,6.48
2018-10-07T01:50:06.200Z,6.85
2018-10-07T01:51:00.704Z,9.52
2018-10-07T01:51:01.276Z,9.33
2018-10-07T01:51:01.876Z,9.43
2018-10-07T01:51:02.475Z,9.52
2018-10-07T01:51:03.074Z,9.43
2018-10-07T01:51:03.677Z,9.43
2018-10-07T01:51:04.275Z,9.52
2018-10-07T01:51:04.874Z,9.43
2018-10-07T01:51:59.379Z,9.72
2018-10-07T01:52:00.000Z,9.72
2018-10-07T01:52:00.550Z,9.72
2018-10-07T01:52:01.151Z,9.72
2018-10-07T01:52:01.750Z,9.81
2018-10-07T01:52:02.351Z,9.91
2018-10-07T01:52:02.959Z,9.91
2018-10-07T01:52:03.551Z,9.91
2018-10-07T01:52:58.054Z,8.29
2018-10-07T01:52:58.627Z,8.29
2018-10-07T01:52:59.232Z,8.19
2018-10-07T01:52:59.826Z,8.57
2018-10-07T01:53:00.427Z,8.57
2018-10-07T01:53:01.028Z,8.19
2018-10-07T01:53:01.626Z,8.38
2018-10-07T01:53:02.227Z,8.48
2018-10-07T01:53:56.742Z,10.10
2018-10-07T01:53:57.303Z,9.91
2018-10-07T01:53:57.903Z,10.38
2018-10-07T01:53:58.502Z,10.38
2018-10-07T01:53:59.102Z,10.00
2018-10-07T01:53:59.702Z,10.28
2018-10-07T01:54:00.302Z,10.10
2018-10-07T01:54:00.902Z,10.19
2018-10-07T01:54:55.407Z,11.05
2018-10-07T01:54:55.977Z,11.24
2018-10-07T01:54:56.577Z,11.15
2018-10-07T01:54:57.176Z,11.24
2018-10-07T01:54:57.776Z,11.24
2018-10-07T01:54:58.376Z,11.05
2018-10-07T01:54:58.975Z,11.33
2018-10-07T01:54:59.577Z,11.33
2018-10-07T01:55:54.080Z,12.00
2018-10-07T01:55:54.656Z,12.00
2018-10-07T01:55:55.253Z,12.00
2018-10-07T01:55:55.854Z,12.10
2018-10-07T01:55:56.454Z,12.10
2018-10-07T01:55:57.055Z,12.00
2018-10-07T01:55:57.653Z,12.00
2018-10-07T01:55:58.254Z,12.10
2018-10-07T01:56:52.761Z,12.76
2018-10-07T01:56:53.331Z,13.05
2018-10-07T01:56:53.931Z,12.86
2018-10-07T01:56:54.530Z,12.86
2018-10-07T01:56:55.129Z,12.86
2018-10-07T01:56:55.733Z,12.95
2018-10-07T01:56:56.331Z,12.86
2018-10-07T01:56:56.931Z,13.05
2018-10-07T01:57:50.409Z,12.95
2018-10-07T01:57:50.983Z,12.57
2018-10-07T01:57:51.583Z,12.38
2018-10-07T01:57:52.188Z,12.38
2018-10-07T01:57:52.787Z,12.57
2018-10-07T01:57:53.383Z,12.48
2018-10-07T01:57:53.981Z,12.38
2018-10-07T01:57:54.582Z,12.76
2018-10-07T01:58:49.080Z,14.19
2018-10-07T01:58:49.658Z,14.29
2018-10-07T01:58:50.256Z,14.19
2018-10-07T01:58:50.857Z,14.19
2018-10-07T01:58:51.456Z,14.19
2018-10-07T01:58:52.057Z,14.39
2018-10-07T01:58:52.657Z,14.19
2018-10-07T01:58:53.255Z,14.48
2018-10-07T01:59:46.736Z,18.96
2018-10-07T01:59:47.309Z,18.77
2018-10-07T01:59:47.910Z,18.57
2018-10-07T01:59:48.508Z,18.67
2018-10-07T01:59:49.109Z,18.67
2018-10-07T01:59:49.708Z,18.96
2018-10-07T01:59:50.309Z,19.15
2018-10-07T01:59:50.909Z,19.24
2018-10-07T02:00:45.426Z,21.05
2018-10-07T02:00:45.988Z,20.96
2018-10-07T02:00:46.583Z,20.96
2018-10-07T02:00:47.184Z,20.67
2018-10-07T02:00:47.783Z,20.67
2018-10-07T02:00:48.382Z,21.05
2018-10-07T02:00:48.982Z,21.05
2018-10-07T02:00:49.583Z,21.05
2018-10-07T02:01:43.061Z,23.05
2018-10-07T02:01:43.642Z,23.53
2018-10-07T02:01:44.237Z,23.15
2018-10-07T02:01:44.842Z,24.10
2018-10-07T02:01:45.437Z,23.91
2018-10-07T02:01:46.037Z,24.01
2018-10-07T02:01:46.637Z,24.29
2018-10-07T02:01:47.238Z,24.29
2018-10-07T02:02:40.713Z,23.43
2018-10-07T02:02:41.290Z,23.43
2018-10-07T02:02:41.888Z,23.34
2018-10-07T02:02:42.492Z,23.15
2018-10-07T02:02:43.089Z,23.63
2018-10-07T02:02:43.688Z,23.34
2018-10-07T02:02:44.287Z,23.24
2018-10-07T02:02:44.888Z,23.24
2018-10-07T02:03:39.392Z,26.29
2018-10-07T02:03:39.965Z,26.39
2018-10-07T02:03:40.563Z,26.10
2018-10-07T02:03:41.162Z,26.48
2018-10-07T02:03:41.764Z,26.67
2018-10-07T02:03:42.363Z,26.48
2018-10-07T02:03:42.966Z,26.39
2018-10-07T02:03:43.565Z,26.20
2018-10-07T02:04:37.040Z,27.15
2018-10-07T02:04:37.616Z,27.15
2018-10-07T02:04:38.215Z,27.25
2018-10-07T02:04:38.821Z,27.25
2018-10-07T02:04:39.416Z,27.15
2018-10-07T02:04:40.016Z,27.25
2018-10-07T02:04:40.617Z,27.06
2018-10-07T02:04:41.227Z,27.15
2018-10-07T02:05:35.720Z,29.44
2018-10-07T02:05:36.290Z,29.34
2018-10-07T02:05:36.891Z,29.44
2018-10-07T02:05:37.490Z,29.44
2018-10-07T02:05:38.090Z,29.05
2018-10-07T02:05:38.694Z,29.05
2018-10-07T02:05:39.296Z,29.05
2018-10-07T02:05:39.888Z,29.05
2018-10-07T02:06:34.396Z,31.82
2018-10-07T02:06:34.966Z,31.72
2018-10-07T02:06:35.566Z,31.72
2018-10-07T02:06:36.168Z,31.63
2018-10-07T02:06:36.768Z,31.44
2018-10-07T02:06:37.366Z,31.44
2018-10-07T02:06:37.967Z,31.72
2018-10-07T02:06:38.566Z,31.92
2018-10-07T02:07:32.044Z,30.87
2018-10-07T02:07:32.624Z,30.68
2018-10-07T02:07:33.220Z,30.96
2018-10-07T02:07:33.829Z,30.77
2018-10-07T02:07:34.421Z,30.58
2018-10-07T02:07:35.021Z,29.91
2018-10-07T02:07:35.620Z,29.91
2018-10-07T02:07:36.220Z,29.82
2018-10-07T02:08:30.723Z,31.05
2018-10-07T02:08:31.293Z,31.34
2018-10-07T02:08:31.894Z,31.44
2018-10-07T02:08:32.495Z,31.82
2018-10-07T02:08:33.093Z,31.72
2018-10-07T02:08:33.694Z,32.01
2018-10-07T02:08:34.293Z,32.29
2018-10-07T02:08:34.893Z,32.48
2018-10-07T02:09:28.372Z,31.44
2018-10-07T02:09:28.946Z,31.63
2018-10-07T02:09:29.545Z,31.44
2018-10-07T02:09:30.146Z,31.53
2018-10-07T02:09:30.746Z,31.44
2018-10-07T02:09:31.354Z,31.72
2018-10-07T02:09:31.949Z,31.82
2018-10-07T02:09:32.584Z,31.82
2018-10-07T02:10:26.023Z,33.91
2018-10-07T02:10:26.598Z,33.63
2018-10-07T02:10:27.198Z,34.20
2018-10-07T02:10:27.798Z,34.20
2018-10-07T02:10:28.396Z,34.30
2018-10-07T02:10:28.997Z,34.01
2018-10-07T02:10:29.599Z,34.20
2018-10-07T02:10:30.197Z,34.20
2018-10-07T02:11:23.674Z,32.87
2018-10-07T02:11:24.256Z,32.68
2018-10-07T02:11:24.850Z,32.96
2018-10-07T02:11:25.454Z,32.87
2018-10-07T02:11:26.051Z,32.87
2018-10-07T02:11:26.652Z,32.77
2018-10-07T02:11:27.250Z,32.77
2018-10-07T02:11:27.849Z,32.87
2018-10-07T02:12:21.325Z,35.06
2018-10-07T02:12:21.902Z,35.15
2018-10-07T02:12:22.502Z,35.35
2018-10-07T02:12:23.104Z,35.06
2018-10-07T02:12:23.701Z,35.15
2018-10-07T02:12:24.303Z,35.15
2018-10-07T02:12:24.900Z,35.06
2018-10-07T02:12:25.500Z,35.06
2018-10-07T02:13:18.977Z,35.15
2018-10-07T02:13:19.556Z,35.35
2018-10-07T02:13:20.153Z,35.25
2018-10-07T02:13:20.759Z,35.15
2018-10-07T02:13:21.353Z,35.44
2018-10-07T02:13:21.953Z,35.35
2018-10-07T02:13:22.553Z,35.53
2018-10-07T02:13:23.153Z,35.44
2018-10-07T02:14:16.631Z,36.20
2018-10-07T02:14:17.205Z,36.39
2018-10-07T02:14:17.804Z,36.20
2018-10-07T02:14:18.408Z,36.20
2018-10-07T02:14:19.002Z,36.10
2018-10-07T02:14:19.603Z,36.30
2018-10-07T02:14:20.203Z,36.10
2018-10-07T02:14:20.803Z,36.20
2018-10-07T02:15:14.280Z,34.96
2018-10-07T02:15:14.858Z,34.77
2018-10-07T02:15:15.458Z,34.96
2018-10-07T02:15:16.060Z,34.96
2018-10-07T02:15:16.657Z,34.87
2018-10-07T02:15:17.263Z,34.96
2018-10-07T02:15:17.858Z,34.96
2018-10-07T02:15:18.458Z,34.87
2018-10-07T02:16:11.937Z,36.30
2018-10-07T02:16:12.510Z,36.20
2018-10-07T02:16:13.108Z,36.20
2018-10-07T02:16:13.712Z,36.30
2018-10-07T02:16:14.338Z,36.30
2018-10-07T02:16:14.906Z,36.49
2018-10-07T02:16:15.510Z,36.49
2018-10-07T02:16:16.106Z,36.68
2018-10-07T02:17:09.612Z,34.11
2018-10-07T02:17:10.170Z,34.01
2018-10-07T02:17:10.814Z,33.82
2018-10-07T02:17:11.414Z,33.91
2018-10-07T02:17:12.006Z,33.63
2018-10-07T02:17:12.601Z,33.53
2018-10-07T02:17:13.234Z,34.01
2018-10-07T02:17:13.790Z,33.63
2018-10-07T02:18:07.239Z,33.15
2018-10-07T02:18:07.811Z,33.06
2018-10-07T02:18:08.420Z,33.06
2018-10-07T02:18:09.009Z,33.06
2018-10-07T02:18:09.611Z,32.77
2018-10-07T02:18:10.209Z,32.87
2018-10-07T02:18:10.810Z,32.68
2018-10-07T02:18:11.410Z,32.77
2018-10-07T02:19:04.890Z,31.72
2018-10-07T02:19:05.464Z,31.82
2018-10-07T02:19:06.064Z,31.72
2018-10-07T02:19:06.662Z,31.82
2018-10-07T02:19:07.262Z,31.72
2018-10-07T02:19:07.862Z,31.82
2018-10-07T02:19:08.463Z,31.82
2018-10-07T02:19:09.062Z,31.72
2018-10-07T02:20:03.566Z,33.72
2018-10-07T02:20:04.138Z,33.72
2018-10-07T02:20:04.739Z,33.91
2018-10-07T02:20:05.338Z,33.91
2018-10-07T02:20:05.937Z,33.91
2018-10-07T02:20:06.541Z,34.01
2018-10-07T02:20:07.138Z,33.63
2018-10-07T02:20:07.739Z,33.63
2018-10-07T02:21:01.219Z,32.39
2018-10-07T02:21:01.792Z,32.01
2018-10-07T02:21:02.390Z,32.10
2018-10-07T02:21:02.993Z,32.10
2018-10-07T02:21:03.590Z,31.63
2018-10-07T02:21:04.190Z,31.72
2018-10-07T02:21:04.790Z,31.82
2018-10-07T02:21:05.392Z,31.82
2018-10-07T02:21:58.869Z,29.82
2018-10-07T02:21:59.443Z,29.91
2018-10-07T02:22:00.043Z,29.63
2018-10-07T02:22:00.648Z,30.00
2018-10-07T02:22:01.243Z,29.63
2018-10-07T02:22:01.842Z,29.53
2018-10-07T02:22:02.443Z,29.63
2018-10-07T02:22:03.092Z,29.53
2018-10-07T02:22:57.545Z,28.01
2018-10-07T02:22:58.116Z,27.91
2018-10-07T02:22:58.717Z,27.91
2018-10-07T02:22:59.317Z,27.81
2018-10-07T02:22:59.918Z,27.81
2018-10-07T02:23:00.517Z,27.91
2018-10-07T02:23:01.116Z,27.72
2018-10-07T02:23:01.717Z,27.72
2018-10-07T02:23:56.221Z,29.25
2018-10-07T02:23:56.793Z,29.15
2018-10-07T02:23:57.392Z,28.96
2018-10-07T02:23:57.992Z,29.25
2018-10-07T02:23:58.592Z,29.34
2018-10-07T02:23:59.193Z,29.15
2018-10-07T02:23:59.792Z,29.05
2018-10-07T02:24:00.391Z,29.15
2018-10-07T02:24:53.870Z,33.44
2018-10-07T02:24:54.446Z,33.82
2018-10-07T02:24:55.044Z,33.82
2018-10-07T02:24:55.647Z,34.30
2018-10-07T02:24:56.244Z,34.01
2018-10-07T02:24:56.846Z,33.63
2018-10-07T02:24:57.443Z,34.11
2018-10-07T02:24:58.044Z,34.87
2018-10-07T02:25:52.548Z,32.48
2018-10-07T02:25:53.120Z,32.29
2018-10-07T02:25:53.721Z,32.10
2018-10-07T02:25:54.323Z,32.39
2018-10-07T02:25:54.923Z,32.20
2018-10-07T02:25:55.521Z,32.20
2018-10-07T02:25:56.119Z,32.39
2018-10-07T02:25:56.720Z,32.29
2018-10-07T02:26:50.197Z,29.63
2018-10-07T02:26:50.777Z,30.00
2018-10-07T02:26:51.373Z,29.72
2018-10-07T02:26:51.976Z,30.00
2018-10-07T02:26:52.572Z,29.53
2018-10-07T02:26:53.172Z,29.63
2018-10-07T02:26:53.771Z,29.44
2018-10-07T02:26:54.371Z,29.25
2018-10-07T02:27:48.876Z,30.58
2018-10-07T02:27:49.447Z,30.10
2018-10-07T02:27:50.047Z,30.00
2018-10-07T02:27:50.648Z,29.82
2018-10-07T02:27:51.248Z,30.10
2018-10-07T02:27:51.848Z,30.39
2018-10-07T02:27:52.447Z,30.39
2018-10-07T02:27:53.046Z,30.29
2018-10-07T02:28:46.527Z,28.01
2018-10-07T02:28:47.100Z,27.72
2018-10-07T02:28:47.700Z,27.91
2018-10-07T02:28:48.304Z,27.81
2018-10-07T02:28:48.899Z,28.01
2018-10-07T02:28:49.500Z,27.81
2018-10-07T02:28:50.104Z,27.81
2018-10-07T02:28:50.699Z,27.81
2018-10-07T02:29:44.175Z,24.39
2018-10-07T02:29:44.751Z,24.39
2018-10-07T02:29:45.352Z,24.39
2018-10-07T02:29:45.959Z,24.39
2018-10-07T02:29:46.552Z,24.67
2018-10-07T02:29:47.153Z,24.58
2018-10-07T02:29:47.752Z,24.48
2018-10-07T02:29:48.351Z,24.48
2018-10-07T02:30:41.829Z,23.05
2018-10-07T02:30:42.405Z,23.15
2018-10-07T02:30:43.003Z,23.15
2018-10-07T02:30:43.609Z,22.96
2018-10-07T02:30:44.203Z,23.05
2018-10-07T02:30:44.807Z,23.05
2018-10-07T02:30:45.404Z,23.15
2018-10-07T02:30:46.006Z,22.96
2018-10-07T02:31:40.507Z,23.15
2018-10-07T02:31:41.079Z,22.86
2018-10-07T02:31:41.682Z,22.77
2018-10-07T02:31:42.283Z,22.96
2018-10-07T02:31:42.878Z,22.86
2018-10-07T02:31:43.477Z,22.77
2018-10-07T02:31:44.078Z,22.86
2018-10-07T02:31:44.677Z,22.58
2018-10-07T02:32:39.182Z,21.72
2018-10-07T02:32:39.755Z,22.29
2018-10-07T02:32:40.355Z,21.91
2018-10-07T02:32:40.953Z,21.81
2018-10-07T02:32:41.556Z,22.29
2018-10-07T02:32:42.154Z,22.19
2018-10-07T02:32:42.753Z,21.91
2018-10-07T02:32:43.356Z,21.72
2018-10-07T02:33:37.857Z,19.72
2018-10-07T02:33:38.430Z,19.81
2018-10-07T02:33:39.031Z,19.72
2018-10-07T02:33:39.633Z,19.53
2018-10-07T02:33:40.230Z,19.62
2018-10-07T02:33:40.829Z,19.53
2018-10-07T02:33:41.428Z,19.43
2018-10-07T02:33:42.029Z,19.43
2018-10-07T02:34:36.534Z,17.53
2018-10-07T02:34:37.105Z,17.81
2018-10-07T02:34:37.707Z,17.61
2018-10-07T02:34:38.304Z,17.53
2018-10-07T02:34:38.904Z,17.62
2018-10-07T02:34:39.504Z,17.81
2018-10-07T02:34:40.104Z,17.53
2018-10-07T02:34:40.705Z,17.62
2018-10-07T02:35:34.182Z,17.53
2018-10-07T02:35:34.758Z,17.52
2018-10-07T02:35:35.357Z,17.53
2018-10-07T02:35:35.970Z,17.72
2018-10-07T02:35:36.561Z,17.72
2018-10-07T02:35:37.157Z,17.62
2018-10-07T02:35:37.757Z,17.72
2018-10-07T02:35:38.358Z,17.53
2018-10-07T02:36:31.835Z,14.66
2018-10-07T02:36:32.416Z,14.66
2018-10-07T02:36:33.009Z,14.95
2018-10-07T02:36:33.614Z,14.58
2018-10-07T02:36:34.210Z,14.58
2018-10-07T02:36:34.808Z,14.76
2018-10-07T02:36:35.409Z,14.39
2018-10-07T02:36:36.008Z,14.28
2018-10-07T02:37:30.515Z,12.76
2018-10-07T02:37:31.085Z,12.86
2018-10-07T02:37:31.684Z,12.29
2018-10-07T02:37:32.285Z,12.38
2018-10-07T02:37:32.886Z,12.95
2018-10-07T02:37:33.484Z,12.76
2018-10-07T02:37:34.083Z,12.67
2018-10-07T02:37:34.684Z,12.86
2018-10-07T02:38:29.187Z,11.71
2018-10-07T02:38:29.761Z,12.38
2018-10-07T02:38:30.360Z,12.10
2018-10-07T02:38:30.968Z,12.28
2018-10-07T02:38:31.560Z,12.29
2018-10-07T02:38:32.165Z,11.91
2018-10-07T02:38:32.760Z,12.10
2018-10-07T02:38:33.366Z,11.81
2018-10-07T02:39:26.836Z,12.38
2018-10-07T02:39:27.413Z,12.47
2018-10-07T02:39:28.013Z,12.47
2018-10-07T02:39:28.617Z,12.38
2018-10-07T02:39:29.213Z,12.28
2018-10-07T02:39:29.812Z,12.28
2018-10-07T02:39:30.412Z,12.38
2018-10-07T02:39:31.017Z,12.28
2018-10-07T02:40:24.490Z,12.38
2018-10-07T02:40:25.064Z,12.38
2018-10-07T02:40:25.664Z,12.47
2018-10-07T02:40:26.272Z,12.19
2018-10-07T02:40:26.864Z,12.19
2018-10-07T02:40:27.464Z,12.09
2018-10-07T02:40:28.064Z,12.09
2018-10-07T02:40:28.664Z,12.28
2018-10-07T02:41:22.143Z,12.09
2018-10-07T02:41:22.718Z,12.19
2018-10-07T02:41:23.318Z,12.19
2018-10-07T02:41:23.918Z,11.99
2018-10-07T02:41:24.518Z,12.47
2018-10-07T02:41:25.117Z,12.57
2018-10-07T02:41:25.717Z,12.47
2018-10-07T02:41:26.320Z,12.47
2018-10-07T02:42:20.816Z,11.33
2018-10-07T02:42:21.390Z,11.23
2018-10-07T02:42:21.993Z,11.14
2018-10-07T02:42:22.593Z,11.33
2018-10-07T02:42:23.193Z,11.43
2018-10-07T02:42:23.791Z,11.14
2018-10-07T02:42:24.391Z,11.33
2018-10-07T02:42:24.989Z,11.33
2018-10-07T02:43:19.494Z,10.85
2018-10-07T02:43:20.067Z,10.66
2018-10-07T02:43:20.666Z,10.95
2018-10-07T02:43:21.272Z,10.85
2018-10-07T02:43:21.868Z,10.85
2018-10-07T02:43:22.470Z,10.85
2018-10-07T02:43:23.069Z,10.66
2018-10-07T02:43:23.666Z,10.75
2018-10-07T02:44:17.146Z,9.52
2018-10-07T02:44:17.720Z,9.42
2018-10-07T02:44:18.324Z,9.52
2018-10-07T02:44:18.924Z,9.33
2018-10-07T02:44:19.519Z,9.52
2018-10-07T02:44:20.121Z,9.61
2018-10-07T02:44:20.721Z,9.61
2018-10-07T02:44:21.321Z,9.42
2018-10-07T02:45:15.822Z,8.18
2018-10-07T02:45:16.394Z,8.28
2018-10-07T02:45:16.995Z,8.28
2018-10-07T02:45:17.599Z,7.90
2018-10-07T02:45:18.194Z,8.09
2018-10-07T02:45:18.795Z,8.18
2018-10-07T02:45:19.399Z,8.09
2018-10-07T02:45:19.992Z,8.18
2018-10-07T02:46:14.497Z,9.52
2018-10-07T02:46:15.069Z,9.61
2018-10-07T02:46:15.672Z,9.33
2018-10-07T02:46:16.269Z,9.52
2018-10-07T02:46:16.869Z,9.42
2018-10-07T02:46:17.469Z,9.52
2018-10-07T02:46:18.067Z,9.52
2018-10-07T02:46:18.669Z,9.52
2018-10-07T02:47:12.145Z,8.28
2018-10-07T02:47:12.721Z,8.57
2018-10-07T02:47:13.323Z,8.57
2018-10-07T02:47:13.921Z,8.28
2018-10-07T02:47:14.522Z,8.28
2018-10-07T02:47:15.121Z,8.57
2018-10-07T02:47:15.723Z,8.37
2018-10-07T02:47:16.323Z,8.28
2018-10-07T02:48:09.798Z,8.09
2018-10-07T02:48:10.374Z,8.18
2018-10-07T02:48:10.973Z,8.00
2018-10-07T02:48:11.580Z,7.81
2018-10-07T02:48:12.172Z,7.81
2018-10-07T02:48:12.779Z,7.62
2018-10-07T02:48:13.375Z,7.81
2018-10-07T02:48:13.973Z,7.62
2018-10-07T02:49:07.449Z,8.28
2018-10-07T02:49:08.025Z,8.28
2018-10-07T02:49:08.625Z,8.66
2018-10-07T02:49:09.230Z,8.76
2018-10-07T02:49:09.825Z,8.76
2018-10-07T02:49:10.425Z,8.57
2018-10-07T02:49:11.026Z,8.85
2018-10-07T02:49:11.625Z,8.18
2018-10-07T02:50:05.104Z,8.18
2018-10-07T02:50:05.677Z,8.09
2018-10-07T02:50:06.276Z,8.09
2018-10-07T02:50:06.880Z,7.81
2018-10-07T02:50:07.476Z,8.09
2018-10-07T02:50:08.076Z,7.81
2018-10-07T02:50:08.681Z,7.81
2018-10-07T02:50:09.276Z,8.00
2018-10-07T02:51:02.753Z,10.75
2018-10-07T02:51:03.328Z,10.95
2018-10-07T02:51:03.929Z,11.04
2018-10-07T02:51:04.535Z,11.14
2018-10-07T02:51:05.128Z,11.04
2018-10-07T02:51:05.729Z,11.14
2018-10-07T02:51:06.328Z,11.14
2018-10-07T02:51:06.929Z,11.14
2018-10-07T02:52:01.437Z,11.91
2018-10-07T02:52:02.004Z,11.71
2018-10-07T02:52:02.602Z,11.80
2018-10-07T02:52:03.203Z,11.90
2018-10-07T02:52:03.804Z,11.99
2018-10-07T02:52:04.403Z,11.90
2018-10-07T02:52:05.004Z,12.10
2018-10-07T02:52:05.603Z,11.90
2018-10-07T02:52:59.083Z,11.52
2018-10-07T02:52:59.655Z,11.52
2018-10-07T02:53:00.260Z,11.71
2018-10-07T02:53:00.899Z,11.43
2018-10-07T02:53:01.485Z,11.43
2018-10-07T02:53:02.059Z,11.99
2018-10-07T02:53:02.661Z,11.71
2018-10-07T02:53:03.305Z,11.71
2018-10-07T02:53:57.759Z,16.00
2018-10-07T02:53:58.331Z,16.00
2018-10-07T02:53:58.930Z,16.00
2018-10-07T02:53:59.532Z,15.90
2018-10-07T02:54:00.129Z,16.00
2018-10-07T02:54:00.729Z,15.90
2018-10-07T02:54:01.329Z,16.09
2018-10-07T02:54:01.932Z,16.09
2018-10-07T02:54:56.441Z,14.00
2018-10-07T02:54:57.011Z,14.00
2018-10-07T02:54:57.611Z,13.90
2018-10-07T02:54:58.214Z,13.81
2018-10-07T02:54:58.811Z,14.09
2018-10-07T02:54:59.412Z,13.81
2018-10-07T02:55:00.014Z,13.81
2018-10-07T02:55:00.610Z,13.90
2018-10-07T02:55:55.113Z,14.18
2018-10-07T02:55:55.687Z,14.37
2018-10-07T02:55:56.287Z,14.28
2018-10-07T02:55:56.886Z,14.37
2018-10-07T02:55:57.487Z,14.18
2018-10-07T02:55:58.088Z,14.18
2018-10-07T02:55:58.685Z,14.28
2018-10-07T02:55:59.289Z,14.28
2018-10-07T02:56:53.790Z,14.47
2018-10-07T02:56:54.363Z,14.37
2018-10-07T02:56:54.962Z,14.09
2018-10-07T02:56:55.563Z,14.09
2018-10-07T02:56:56.162Z,14.47
2018-10-07T02:56:56.764Z,14.18
2018-10-07T02:56:57.363Z,14.28
2018-10-07T02:56:57.962Z,14.09
2018-10-07T02:57:51.441Z,13.42
2018-10-07T02:57:52.015Z,13.52
2018-10-07T02:57:52.617Z,13.42
2018-10-07T02:57:53.222Z,13.42
2018-10-07T02:57:53.815Z,13.42
2018-10-07T02:57:54.415Z,13.62
2018-10-07T02:57:55.014Z,13.42
2018-10-07T02:57:55.613Z,13.71
2018-10-07T02:59:01.791Z,12.85
2018-10-07T02:59:02.364Z,12.76
2018-10-07T02:59:02.963Z,12.85
2018-10-07T02:59:03.567Z,12.95
2018-10-07T02:59:04.188Z,12.85
2018-10-07T02:59:04.766Z,12.38
2018-10-07T02:59:05.362Z,12.47
2018-10-07T02:59:05.962Z,12.85
2018-10-07T02:59:59.443Z,12.28
2018-10-07T03:00:00.016Z,12.28
2018-10-07T03:00:00.616Z,11.99
2018-10-07T03:00:01.229Z,12.09
2018-10-07T03:00:01.816Z,12.19
2018-10-07T03:00:02.418Z,12.57
2018-10-07T03:00:03.014Z,12.47
2018-10-07T03:00:03.617Z,12.38
2018-10-07T03:00:58.125Z,13.42
2018-10-07T03:00:58.691Z,13.62
2018-10-07T03:00:59.295Z,13.71
2018-10-07T03:00:59.893Z,13.81
2018-10-07T03:01:00.490Z,13.81
2018-10-07T03:01:01.089Z,13.71
2018-10-07T03:01:01.691Z,13.81
2018-10-07T03:01:02.289Z,14.09
2018-10-07T03:01:55.775Z,14.66
2018-10-07T03:01:56.345Z,14.85
2018-10-07T03:01:56.946Z,14.85
2018-10-07T03:01:57.545Z,15.05
2018-10-07T03:01:58.143Z,15.05
2018-10-07T03:01:58.748Z,14.95
2018-10-07T03:01:59.342Z,15.05
2018-10-07T03:01:59.943Z,15.05
2018-10-07T03:02:53.426Z,17.90
2018-10-07T03:02:53.996Z,17.90
2018-10-07T03:02:54.596Z,17.52
2018-10-07T03:02:55.201Z,17.90
2018-10-07T03:02:55.796Z,17.99
2018-10-07T03:02:56.395Z,17.90
2018-10-07T03:02:56.995Z,17.99
2018-10-07T03:02:57.601Z,17.99
2018-10-07T03:03:51.079Z,19.61
2018-10-07T03:03:51.647Z,19.71
2018-10-07T03:03:52.251Z,19.71
2018-10-07T03:03:52.848Z,19.81
2018-10-07T03:03:53.447Z,19.81
2018-10-07T03:03:54.047Z,19.71
2018-10-07T03:03:54.650Z,19.71
2018-10-07T03:03:55.261Z,19.81
2018-10-07T03:04:48.812Z,21.23
2018-10-07T03:04:49.357Z,21.14
2018-10-07T03:04:49.971Z,21.42
2018-10-07T03:04:50.547Z,21.14
2018-10-07T03:04:51.209Z,21.14
2018-10-07T03:04:51.759Z,21.14
2018-10-07T03:04:52.396Z,21.23
2018-10-07T03:04:52.897Z,21.33
2018-10-07T03:05:46.380Z,20.09
2018-10-07T03:05:46.951Z,19.90
2018-10-07T03:05:47.551Z,20.09
2018-10-07T03:05:48.186Z,20.00
2018-10-07T03:05:48.750Z,20.00
2018-10-07T03:05:49.350Z,19.81